Latest Weather Observations for Redcliffe

IDQ60801

Issued at 8:05 pm EST Thursday 23 October 2014 (issued every 30 minutes, with the page automatically refreshed every 10 minutes)

About weather observations | Map of weather stations | Latest weather observations for QLD | Other Formats
Station Details ID: 040958 Name: REDCLIFFE Lat: -27.22 Lon: 153.09 Height: 12.6 m
Data from the previous 72 hours. | See also: Recent months at Redcliffe
Date/Time
EST
Temp
°C
App
Temp
°C
Dew
Point
Rel
Hum
%
Delta-T
°C
Wind Press
QNH
hPa
Press
MSL
hPa
Rain
since 9 am
mm
Dir
 
Spd
km/h
Gust
km/h
Spd
kts
Gust
kts
23/08:00pm 20.8 17.3 13.5 63 4.2 NNE 24 30 13 16 1021.0 1020.9 0.0
23/07:30pm 20.9 17.3 13.1 61 4.4 NNE 24 32 13 17 1020.3 1020.2 0.0
23/07:00pm 20.8 16.7 12.8 60 4.5 NNE 26 30 14 16 1020.1 1020.0 0.0
23/06:30pm 20.9 16.6 13.1 61 4.4 NNE 28 32 15 17 1019.8 1019.7 0.0
23/06:00pm 21.2 16.8 12.9 59 4.7 NNE 28 32 15 17 1019.4 1019.3 0.0
23/05:30pm 21.5 16.6 12.6 57 5.0 NNE 30 33 16 18 1018.9 1018.8 0.0
23/05:00pm 21.8 16.5 12.6 56 5.2 NNE 32 35 17 19 1018.5 1018.4 0.0
23/04:30pm 22.3 16.8 12.3 53 5.7 NNE 33 37 18 20 1017.9 1017.8 0.0
23/04:00pm 22.5 17.2 12.4 52 5.7 NNE 32 35 17 19 1017.9 1017.8 0.0
23/03:30pm 22.6 17.4 12.8 54 5.6 NNE 32 35 17 19 1017.7 1017.6 0.0
23/03:00pm 23.1 18.2 12.7 52 5.9 NNE 30 32 16 17 1017.7 1017.6 0.0
23/02:30pm 23.4 19.0 13.0 52 6.0 NNE 28 32 15 17 1018.0 1017.9 0.0
23/02:00pm 23.3 19.7 13.2 53 5.8 NE 24 30 13 16 1018.4 1018.3 0.0
23/01:30pm 22.4 18.7 12.6 54 5.6 NE 24 28 13 15 1018.8 1018.7 0.0
23/01:00pm 22.9 19.3 13.1 54 5.6 NE 24 28 13 15 1019.2 1019.1 0.0
23/12:30pm 22.8 19.0 12.4 52 5.9 NE 24 26 13 14 1019.7 1019.6 0.0
23/12:00pm 23.7 20.7 12.7 50 6.3 ENE 20 24 11 13 1020.3 1020.2 0.0
23/11:30am 23.1 20.3 11.2 47 6.6 ENE 17 20 9 11 1020.9 1020.8 0.0
23/11:00am 22.5 19.8 10.3 46 6.7 ENE 15 17 8 9 1021.3 1021.2 0.0
23/10:30am 22.9 21.2 9.7 43 7.2 ENE 9 13 5 7 1021.8 1021.7 0.0
23/10:00am 22.7 21.2 10.5 46 6.7 ENE 9 13 5 7 1022.2 1022.1 0.0
23/09:30am 21.9 20.4 10.4 48 6.3 ESE 9 11 5 6 1022.6 1022.5 0.0
23/09:00am 21.6 19.2 10.1 48 6.2 SSE 13 15 7 8 1022.6 1022.5 0.0
23/08:30am 21.5 18.8 10.3 49 6.1 SSE 15 15 8 8 1022.7 1022.6 0.0
23/08:00am 21.1 19.0 11.2 53 5.4 S 13 15 7 8 1022.7 1022.6 0.0
23/07:30am 19.9 18.7 11.7 59 4.5 SW 9 11 5 6 1022.8 1022.7 0.0
23/07:00am 18.4 17.2 11.7 65 3.7 WSW 9 11 5 6 1022.5 1022.4 0.0
23/06:30am 17.0 15.4 11.5 70 3.0 WSW 11 13 6 7 1022.4 1022.3 0.0
23/06:00am 15.9 15.0 11.3 74 2.5 WSW 7 11 4 6 1022.2 1022.1 0.0
23/05:30am 15.1 13.8 11.1 77 2.1 WSW 9 11 5 6 1022.1 1022.0 0.0
23/05:00am 15.4 13.7 11.2 76 2.2 SW 11 13 6 7 1022.0 1021.9 0.0
23/04:30am 15.9 13.8 11.3 74 2.5 SSW 13 15 7 8 1021.8 1021.7 0.0
23/04:00am 16.1 14.8 11.3 73 2.6 SSW 9 13 5 7 1021.6 1021.5 0.0
23/03:30am 16.5 14.9 11.6 73 2.7 ESE 11 15 6 8 1021.4 1021.3 0.0
23/03:00am 16.9 15.2 11.2 69 3.1 E 11 13 6 7 1021.4 1021.3 0.0
23/02:30am 18.2 16.3 10.6 61 4.1 ESE 11 15 6 8 1021.6 1021.5 0.0
23/02:00am 19.0 16.6 11.3 61 4.2 ESE 15 19 8 10 1021.5 1021.4 0.0
23/01:30am 18.8 16.7 11.1 61 4.2 E 13 15 7 8 1021.8 1021.7 0.0
23/01:00am 19.0 16.6 11.3 61 4.2 ESE 15 17 8 9 1022.2 1022.1 0.0
23/12:30am 19.4 16.8 10.7 57 4.7 ESE 15 19 8 10 1022.4 1022.3 0.0
23/12:00am 19.6 16.4 11.9 61 4.3 E 20 26 11 14 1022.6 1022.5 0.0
 
Date/Time
EST
Temp
°C
App
Temp
°C
Dew
Point
Rel
Hum
%
Delta-T
°C
Wind Press
QNH
hPa
Press
MSL
hPa
Rain
since 9 am
mm
Dir
 
Spd
km/h
Gust
km/h
Spd
kts
Gust
kts
22/11:30pm 19.6 16.9 11.6 60 4.4 ESE 17 20 9 11 1023.0 1022.9 0.0
22/11:00pm 19.7 16.6 11.7 60 4.4 ESE 19 24 10 13 1023.3 1023.2 0.0
22/10:30pm 19.8 16.9 11.0 57 4.8 ESE 17 26 9 14 1023.4 1023.3 0.0
22/10:00pm 19.7 16.5 11.2 58 4.6 ESE 19 24 10 13 1023.4 1023.3 0.0
22/09:30pm 19.9 16.7 11.4 58 4.7 ESE 19 26 10 14 1023.5 1023.4 0.0
22/09:00pm 19.8 16.0 11.3 58 4.6 ESE 22 30 12 16 1023.5 1023.4 0.0
22/08:30pm 19.9 16.8 12.2 61 4.3 ESE 20 30 11 16 1023.5 1023.4 0.0
22/08:00pm 19.9 16.1 11.1 57 4.8 ESE 22 28 12 15 1023.3 1023.2 0.0
22/07:30pm 19.9 15.9 11.7 59 4.5 SE 24 28 13 15 1023.3 1023.2 0.0
22/07:00pm 19.8 16.1 11.6 59 4.5 ESE 22 30 12 16 1023.2 1023.1 0.0
22/06:30pm 19.8 16.3 12.1 61 4.3 ESE 22 26 12 14 1023.1 1023.0 0.0
22/06:00pm 20.0 16.2 12.5 62 4.2 ESE 24 30 13 16 1023.0 1022.9 0.0
22/05:30pm 20.3 15.8 11.5 57 4.9 ESE 26 32 14 17 1022.9 1022.8 0.0
22/05:00pm 20.7 15.9 11.6 56 5.0 ESE 28 41 15 22 1022.6 1022.5 0.0
22/04:30pm 20.7 16.0 11.9 57 4.9 ESE 28 32 15 17 1022.5 1022.4 0.0
22/04:00pm 20.8 15.4 10.9 53 5.4 ESE 30 35 16 19 1022.4 1022.3 0.0
22/03:30pm 21.3 15.8 11.9 55 5.3 ESE 32 35 17 19 1022.4 1022.3 0.0
22/03:00pm 21.8 16.5 12.6 56 5.2 E 32 39 17 21 1022.3 1022.2 0.0
22/02:30pm 22.2 17.9 11.9 52 5.8 ESE 26 33 14 18 1022.5 1022.4 0.0
22/02:00pm 21.3 16.6 10.8 51 5.7 ESE 26 32 14 17 1022.8 1022.7 0.0
22/01:30pm 21.8 17.0 11.5 52 5.7 ESE 28 35 15 19 1023.0 1022.9 0.0
22/01:00pm 21.8 16.4 12.1 54 5.4 ESE 32 39 17 21 1023.3 1023.2 0.0
22/12:30pm 21.8 16.1 11.2 51 5.9 SE 32 35 17 19 1023.7 1023.6 0.0
22/12:00pm 22.2 17.5 10.7 48 6.3 ESE 26 32 14 17 1024.2 1024.1 0.0
22/11:30am 21.2 16.5 10.7 51 5.7 ESE 26 28 14 15 1024.6 1024.5 0.0
22/11:00am 21.9 16.7 12.7 56 5.2 SE 32 35 17 19 1024.9 1024.8 0.0
22/10:30am 21.4 16.4 11.1 52 5.7 SE 28 32 15 17 1025.1 1025.0 0.0
22/10:00am 20.9 15.6 11.3 54 5.3 SE 30 37 16 20 1025.4 1025.3 0.0
22/09:30am 20.6 15.6 12.1 58 4.8 SSE 30 37 16 20 1025.6 1025.5 0.0
22/09:00am 21.2 17.5 12.6 58 4.8 SSE 24 30 13 16 1025.6 1025.5 0.0
22/08:30am 20.4 17.3 12.1 59 4.6 S 20 28 11 15 1025.6 1025.5 0.0
22/08:00am 19.6 16.1 12.1 62 4.2 S 22 30 12 16 1025.7 1025.6 0.0
22/07:30am 19.8 15.4 11.6 59 4.5 S 26 32 14 17 1025.4 1025.3 0.0
22/07:00am 19.3 16.3 12.1 63 4.0 SSW 19 28 10 15 1025.2 1025.1 0.0
22/06:30am 18.4 15.4 12.4 68 3.3 S 20 32 11 17 1025.1 1025.0 0.0
22/06:00am 17.8 14.0 12.5 71 2.9 S 24 30 13 16 1024.8 1024.7 0.0
22/05:30am 17.4 14.8 12.1 71 2.9 SSW 17 22 9 12 1024.5 1024.4 0.0
22/05:00am 17.5 14.5 12.0 70 3.0 S 19 32 10 17 1024.5 1024.4 0.0
22/04:30am 17.4 13.9 12.3 72 2.8 S 22 28 12 15 1024.3 1024.2 0.0
22/04:00am 17.4 13.1 11.9 70 3.0 S 26 30 14 16 1024.3 1024.2 0.0
22/03:30am 17.6 13.7 12.1 70 3.0 S 24 32 13 17 1024.4 1024.3 0.0
22/03:00am 17.7 13.5 12.4 71 2.9 S 26 32 14 17 1024.6 1024.5 0.0
22/02:30am 17.1 14.2 12.8 76 2.4 S 20 30 11 16 1024.9 1024.8 0.0
22/02:00am 17.5 12.1 12.2 71 2.9 S 32 43 17 23 1025.0 1024.9 0.0
22/01:30am 18.1 12.6 12.5 70 3.1 S 33 37 18 20 1025.3 1025.2 0.0
22/01:00am 18.1 13.0 13.0 72 2.8 S 32 35 17 19 1025.6 1025.5 0.0
22/12:30am 18.3 12.2 13.0 71 3.0 S 37 46 20 25 1026.0 1025.9 0.0
22/12:00am 18.0 12.9 13.1 73 2.7 S 32 37 17 20 1026.5 1026.4 0.0
 
Date/Time
EST
Temp
°C
App
Temp
°C
Dew
Point
Rel
Hum
%
Delta-T
°C
Wind Press
QNH
hPa
Press
MSL
hPa
Rain
since 9 am
mm
Dir
 
Spd
km/h
Gust
km/h
Spd
kts
Gust
kts
21/11:30pm 18.0 13.0 13.5 75 2.5 S 32 39 17 21 1026.9 1026.8 0.0
21/11:00pm 18.6 12.4 12.8 69 3.2 S 37 41 20 22 1027.2 1027.1 0.0
21/10:30pm 18.7 12.5 12.7 68 3.4 SSE 37 46 20 25 1027.3 1027.2 0.0
21/10:00pm 19.0 13.4 13.2 69 3.3 SSE 35 43 19 23 1027.2 1027.1 0.0
21/09:30pm 19.3 11.9 13.2 68 3.5 SSE 44 54 24 29 1027.3 1027.2 0.0
21/09:00pm 19.8 12.7 13.3 66 3.7 SSE 43 50 23 27 1027.1 1027.0 0.0
21/08:30pm 20.0 12.6 13.2 65 3.9 SSE 44 52 24 28 1026.8 1026.7 0.0
21/08:00pm 20.0 12.3 13.2 65 3.8 SSE 46 56 25 30 1026.7 1026.6 0.0
21/07:30pm 20.3 13.8 13.0 63 4.1 SSE 39 48 21 26 1026.5 1026.4 0.0
21/07:00pm 20.4 13.0 12.9 62 4.2 SSE 44 54 24 29 1026.3 1026.2 0.0
21/06:30pm 20.4 13.1 13.4 64 4.0 SSE 44 56 24 30 1026.0 1025.9 0.0
21/06:00pm 20.5 12.9 13.5 64 4.0 SSE 46 56 25 30 1025.7 1025.6 0.0
21/05:30pm 20.9 12.9 13.4 62 4.3 SSE 48 54 26 29 1025.4 1025.3 0.0
21/05:00pm 21.2 13.5 13.4 61 4.5 SE 46 54 25 29 1025.1 1025.0 0.0
21/04:30pm 21.3 13.1 14.2 64 4.1 SSE 50 57 27 31 1024.8 1024.7 0.0
21/04:00pm 21.4 13.6 14.1 63 4.2 SSE 48 57 26 31 1024.5 1024.4 0.0
21/03:30pm 21.6 13.9 14.3 63 4.3 SSE 48 56 26 30 1024.3 1024.2 0.0
21/03:00pm 21.9 14.1 14.0 61 4.6 SSE 48 57 26 31 1024.2 1024.1 0.0
21/02:30pm 22.4 14.5 14.8 62 4.5 SSE 50 57 27 31 1024.2 1024.1 0.0
21/02:00pm 22.9 15.2 13.4 55 5.5 SSE 46 56 25 30 1024.2 1024.1 0.0
21/01:30pm 24.1 16.6 13.9 53 6.0 SE 46 52 25 28 1024.7 1024.6 0.0
21/01:00pm 23.4 16.4 13.8 54 5.6 SE 43 50 23 27 1024.9 1024.8 0.0
21/12:30pm 23.4 16.3 13.3 53 5.8 SE 43 50 23 27 1025.4 1025.3 0.0
21/12:00pm 22.8 15.2 13.6 56 5.3 SE 46 54 25 29 1025.7 1025.6 0.0
21/11:30am 23.2 16.4 14.2 57 5.3 SSE 43 50 23 27 1026.2 1026.1 0.0
21/11:00am 22.8 15.6 13.8 57 5.2 SSE 44 52 24 28 1026.4 1026.3 0.0
21/10:30am 22.8 15.8 13.6 56 5.3 SSE 43 52 23 28 1026.6 1026.5 0.0
21/10:00am 22.1 14.7 12.9 56 5.2 SSE 44 52 24 28 1026.6 1026.5 0.0
21/09:30am 21.6 14.1 13.8 61 4.5 SSE 46 57 25 31 1026.9 1026.8 0.0
21/09:00am 21.6 14.9 13.5 60 4.6 SSE 41 52 22 28 1026.9 1026.8 0.4
21/08:30am 20.6 14.9 14.3 67 3.7 SSE 37 48 20 26 1027.1 1027.0 0.4
21/08:00am 19.6 16.2 15.7 78 2.3 SSE 28 39 15 21 1027.0 1026.9 0.4
21/07:30am 18.6 14.5 16.4 87 1.3 SSE 33 41 18 22 1026.9 1026.8 0.2
21/07:20am 18.7 15.0 16.1 85 1.5 ESE 30 32 16 17 1026.8 1026.7 0.2
21/07:00am 18.9 12.0 16.5 86 1.4 SSE 48 56 26 30 1026.3 1026.2 0.0
21/06:30am 18.2 12.6 15.5 84 1.6 S 39 52 21 28 1025.9 1025.8 0.0
21/06:00am 18.8 13.8 15.1 79 2.2 S 35 46 19 25 1025.8 1025.7 0.0
21/05:30am 20.2 14.6 15.4 74 2.8 SSE 39 48 21 26 1025.4 1025.3 0.0
21/05:00am 20.2 16.6 15.2 73 2.9 SSE 28 33 15 18 1025.2 1025.1 0.0
21/04:30am 20.1 17.1 15.9 77 2.5 SSE 26 32 14 17 1024.8 1024.7 0.0
21/04:00am 19.9 17.8 16.2 79 2.2 SSE 22 26 12 14 1024.7 1024.6 0.0
21/03:30am 19.4 17.3 15.3 77 2.4 S 20 24 11 13 1024.7 1024.6 0.0
21/03:00am 19.8 19.2 15.7 77 2.4 S 13 15 7 8 1024.9 1024.8 0.0
21/02:30am 19.5 18.0 15.4 77 2.4 S 17 20 9 11 1025.0 1024.9 0.0
21/02:00am 19.1 17.1 15.0 77 2.4 S 19 24 10 13 1025.1 1025.0 0.0
21/01:30am 19.1 16.7 14.4 74 2.7 S 20 24 11 13 1025.3 1025.2 0.0
21/01:00am 19.2 16.7 14.2 73 2.9 S 20 24 11 13 1025.8 1025.7 0.0
21/12:30am 19.5 17.4 13.7 69 3.3 S 17 19 9 10 1026.0 1025.9 0.0
21/12:00am 20.7 17.6 14.4 67 3.7 SE 24 28 13 15 1026.2 1026.1 0.0
 
Date/Time
EST
Temp
°C
App
Temp
°C
Dew
Point
Rel
Hum
%
Delta-T
°C
Wind Press
QNH
hPa
Press
MSL
hPa
Rain
since 9 am
mm
Dir
 
Spd
km/h
Gust
km/h
Spd
kts
Gust
kts
20/11:30pm 20.5 16.5 14.2 67 3.7 SSE 28 33 15 18 1026.5 1026.4 0.0
20/11:00pm 20.6 16.2 14.0 66 3.8 SSE 30 35 16 19 1026.6 1026.5 0.0
20/10:30pm 20.9 16.0 13.6 63 4.2 SSE 32 37 17 20 1026.7 1026.6 0.0
20/10:00pm 21.0 16.8 13.4 62 4.3 SSE 28 32 15 17 1026.7 1026.6 0.0
20/09:30pm 21.0 17.0 12.9 60 4.6 SE 26 30 14 16 1026.7 1026.6 0.0
20/09:00pm 20.8 17.0 12.5 59 4.7 SE 24 28 13 15 1026.5 1026.4 0.0
20/08:30pm 20.9 17.9 12.6 59 4.7 SE 20 26 11 14 1026.2 1026.1 0.0

Other Formats:

Comma delimited format used in spreadsheet applications
http://www.bom.gov.au/fwo/IDQ60801/IDQ60801.95591.axf

JavaScript Object Notation format (JSON) in row-major order
http://www.bom.gov.au/fwo/IDQ60801/IDQ60801.95591.json